createdAt,value
2019-02-05T00:01:24.005Z,100992.53
2019-02-05T00:03:53.144Z,100996.33
2019-02-05T00:06:22.253Z,100995.44
2019-02-05T00:08:50.947Z,101001.06
2019-02-05T00:11:19.712Z,100996.98
2019-02-05T00:13:48.512Z,101000.90
2019-02-05T00:16:17.243Z,100985.19
2019-02-05T00:18:45.932Z,100991.59
2019-02-05T00:21:15.040Z,100991.31
2019-02-05T00:23:43.756Z,101001.31
2019-02-05T00:26:12.584Z,100997.81
2019-02-05T00:28:41.296Z,101003.83
2019-02-05T00:31:09.992Z,100994.91
2019-02-05T00:33:38.688Z,101005.02
2019-02-05T00:36:07.408Z,100991.45
2019-02-05T00:38:36.167Z,100996.09
2019-02-05T00:41:04.872Z,100989.00
2019-02-05T00:43:33.583Z,100990.08
2019-02-05T00:46:02.462Z,101004.61
2019-02-05T00:48:31.231Z,100995.30
2019-02-05T00:51:00.265Z,101000.84
2019-02-05T00:53:29.068Z,100996.48
2019-02-05T00:55:57.782Z,100992.11
2019-02-05T00:58:26.918Z,100993.00
2019-02-05T01:00:55.641Z,100997.06
2019-02-05T01:03:24.374Z,101004.54
2019-02-05T01:05:53.074Z,100998.44
2019-02-05T01:08:22.169Z,101000.19
2019-02-05T01:10:50.861Z,100994.94
2019-02-05T01:13:19.926Z,100992.80
2019-02-05T01:15:48.627Z,101008.62
2019-02-05T01:18:17.613Z,101004.27
2019-02-05T01:20:46.877Z,101011.62
2019-02-05T01:23:15.684Z,100998.25
2019-02-05T01:25:44.380Z,101009.20
2019-02-05T01:28:13.073Z,101021.88
2019-02-05T01:30:41.791Z,101012.38
2019-02-05T01:33:10.578Z,101006.60
2019-02-05T01:35:39.369Z,101010.67
2019-02-05T01:38:08.345Z,101013.38
2019-02-05T01:40:37.030Z,101011.53
2019-02-05T01:43:05.741Z,101010.06
2019-02-05T01:45:34.438Z,101011.14
2019-02-05T01:48:03.175Z,101013.74
2019-02-05T01:50:31.954Z,101014.73
2019-02-05T01:53:01.240Z,101020.73
2019-02-05T01:55:30.006Z,101019.56
2019-02-05T01:57:58.736Z,101022.28
2019-02-05T02:00:30.763Z,101018.78
2019-02-05T02:03:00.287Z,101023.45
2019-02-05T02:05:29.009Z,101024.42
2019-02-05T02:07:58.093Z,101024.99
2019-02-05T02:10:28.053Z,101018.78
2019-02-05T02:12:56.794Z,101009.51
2019-02-05T02:15:25.502Z,101011.83
2019-02-05T02:17:54.233Z,101014.15
2019-02-05T02:20:22.994Z,101011.62
2019-02-05T02:22:51.731Z,101005.44
2019-02-05T02:25:20.467Z,101004.66
2019-02-05T02:27:49.735Z,101005.63
2019-02-05T02:30:30.901Z,101012.97
2019-02-05T02:32:59.982Z,101024.39
2019-02-05T02:35:28.702Z,101017.69
2019-02-05T02:37:57.447Z,101019.54
2019-02-05T02:40:26.191Z,101027.85
2019-02-05T02:42:54.912Z,101019.33
2019-02-05T02:45:24.001Z,101019.92
2019-02-05T02:47:52.921Z,101029.41
2019-02-05T02:50:22.294Z,101029.20
2019-02-05T02:52:51.274Z,101032.88
2019-02-05T02:55:20.025Z,101036.16
2019-02-05T02:57:48.813Z,101027.84
2019-02-05T03:00:18.926Z,101030.55
2019-02-05T03:02:47.734Z,101024.84
2019-02-05T03:05:18.903Z,101034.03
2019-02-05T03:07:48.108Z,101029.19
2019-02-05T03:10:19.253Z,101036.42
2019-02-05T03:12:47.899Z,101028.50
2019-02-05T03:15:16.841Z,101028.57
2019-02-05T03:17:45.662Z,101025.10
2019-02-05T03:20:14.413Z,101025.67
2019-02-05T03:22:45.365Z,101027.59
2019-02-05T03:25:14.094Z,101030.97
2019-02-05T03:27:42.983Z,101025.76
2019-02-05T03:30:17.887Z,101029.50
2019-02-05T03:32:47.043Z,101031.05
2019-02-05T03:35:16.643Z,101034.73
2019-02-05T03:37:45.355Z,101035.30
2019-02-05T03:41:02.026Z,101034.90
2019-02-05T03:43:30.883Z,101042.62
2019-02-05T03:46:00.269Z,101035.66
2019-02-05T03:48:28.964Z,101034.58
2019-02-05T03:51:06.355Z,101036.17
2019-02-05T03:53:35.881Z,101034.98
2019-02-05T03:56:46.707Z,101033.63
2019-02-05T03:59:48.204Z,101034.69
2019-02-05T04:02:58.644Z,101027.73
2019-02-05T04:05:49.446Z,101029.25
2019-02-05T04:08:53.663Z,101037.64
2019-02-05T04:11:35.300Z,101043.32
2019-02-05T04:14:42.596Z,101043.81
2019-02-05T04:17:59.439Z,101035.20
2019-02-05T04:20:55.433Z,101038.96
2019-02-05T04:24:00.249Z,101046.69
2019-02-05T04:27:05.602Z,101043.19
2019-02-05T04:30:05.945Z,101033.34
2019-02-05T04:33:06.524Z,101028.79
2019-02-05T04:36:18.710Z,101034.70
2019-02-05T04:39:16.426Z,101036.78
2019-02-05T04:42:29.710Z,101028.46
2019-02-05T04:45:17.326Z,101045.42
2019-02-05T04:48:13.640Z,101029.38
2019-02-05T04:51:03.561Z,101036.41
2019-02-05T04:54:04.003Z,101023.53
2019-02-05T04:56:56.597Z,101026.63
2019-02-05T05:00:06.780Z,101015.81
2019-02-05T05:03:33.859Z,101018.31
2019-02-05T05:06:36.237Z,101021.06
2019-02-05T05:09:36.850Z,101021.86
2019-02-05T05:12:05.564Z,101024.00
2019-02-05T05:14:34.273Z,101026.71
2019-02-05T05:17:03.687Z,101033.87
2019-02-05T05:19:33.154Z,101028.46
2019-02-05T05:22:01.899Z,101029.22
2019-02-05T05:24:30.577Z,101036.98
2019-02-05T05:26:59.283Z,101032.12
2019-02-05T05:29:27.971Z,101034.63
2019-02-05T05:31:56.857Z,101031.62
2019-02-05T05:34:25.566Z,101034.63
2019-02-05T05:36:53.044Z,101036.48
2019-02-05T05:39:21.756Z,101040.15
2019-02-05T05:41:50.479Z,101039.05
2019-02-05T05:44:19.182Z,101050.87
2019-02-05T05:46:47.897Z,101050.87
2019-02-05T05:49:16.615Z,101056.89
2019-02-05T05:51:45.339Z,101057.14
2019-02-05T05:54:14.351Z,101050.23
2019-02-05T05:56:43.063Z,101059.02
2019-02-05T05:59:11.756Z,101059.02
2019-02-05T06:01:43.458Z,101056.56
2019-02-05T06:04:12.542Z,101069.81
2019-02-05T06:06:41.554Z,101055.99
2019-02-05T06:09:10.249Z,101056.59
2019-02-05T06:11:39.140Z,101058.19
2019-02-05T06:14:07.905Z,101064.55
2019-02-05T06:16:36.756Z,101071.62
2019-02-05T06:19:05.467Z,101072.88
2019-02-05T06:21:34.464Z,101078.88
2019-02-05T06:24:03.444Z,101080.22
2019-02-05T06:26:32.147Z,101077.18
2019-02-05T06:29:00.855Z,101076.81
2019-02-05T06:31:29.940Z,101078.78
2019-02-05T06:33:58.635Z,101075.31
2019-02-05T06:36:27.351Z,101076.08
2019-02-05T06:38:56.057Z,101076.47
2019-02-05T06:41:24.785Z,101083.23
2019-02-05T06:43:53.811Z,101080.63
2019-02-05T06:46:22.521Z,101094.64
2019-02-05T06:48:51.214Z,101089.59
2019-02-05T06:51:20.243Z,101099.95
2019-02-05T06:53:49.363Z,101099.55
2019-02-05T06:56:18.425Z,101111.42
2019-02-05T06:58:47.432Z,101112.28
2019-02-05T07:01:16.132Z,101114.67
2019-02-05T07:03:44.840Z,101130.09
2019-02-05T07:06:13.610Z,101129.70
2019-02-05T07:08:42.672Z,101129.79
2019-02-05T07:11:11.528Z,101133.05
2019-02-05T07:13:40.986Z,101138.85
2019-02-05T07:16:09.698Z,101137.28
2019-02-05T07:18:38.528Z,101137.34
2019-02-05T07:21:07.226Z,101137.34
2019-02-05T07:23:35.983Z,101144.68
2019-02-05T07:26:04.655Z,101143.78
2019-02-05T07:28:33.368Z,101152.84
2019-02-05T07:31:02.352Z,101159.70
2019-02-05T07:33:31.061Z,101161.14
2019-02-05T07:35:59.865Z,101167.89
2019-02-05T07:38:28.602Z,101180.52
2019-02-05T07:40:57.293Z,101174.74
2019-02-05T07:43:26.007Z,101174.74
2019-02-05T07:45:54.752Z,101178.40
2019-02-05T07:48:23.729Z,101181.64
2019-02-05T07:50:52.423Z,101184.98
2019-02-05T07:53:21.139Z,101193.41
2019-02-05T07:55:49.860Z,101193.64
2019-02-05T07:58:18.549Z,101189.30
2019-02-05T08:00:47.247Z,101188.89
2019-02-05T08:03:15.952Z,101187.72
2019-02-05T08:05:44.638Z,101199.47
2019-02-05T08:08:13.899Z,101198.67
2019-02-05T08:10:42.626Z,101203.66
2019-02-05T08:13:11.314Z,101205.97
2019-02-05T08:15:40.104Z,101207.89
2019-02-05T08:18:08.832Z,101209.78
2019-02-05T08:20:37.552Z,101211.22
2019-02-05T08:23:06.564Z,101210.41
2019-02-05T08:25:35.509Z,101209.12
2019-02-05T08:28:04.426Z,101210.09
2019-02-05T08:30:35.933Z,101217.31
2019-02-05T08:33:04.665Z,101205.78
2019-02-05T08:35:33.385Z,101209.42
2019-02-05T08:38:02.093Z,101208.08
2019-02-05T08:40:30.797Z,101203.08
2019-02-05T08:42:59.500Z,101207.53
2019-02-05T08:45:29.045Z,101204.83
2019-02-05T08:47:57.761Z,101205.32
2019-02-05T08:50:27.578Z,101210.23
2019-02-05T08:52:56.273Z,101222.93
2019-02-05T08:55:25.047Z,101223.87
2019-02-05T08:57:55.018Z,101228.88
2019-02-05T09:00:29.482Z,101230.23
2019-02-05T09:02:58.892Z,101239.45
2019-02-05T09:05:27.613Z,101239.75
2019-02-05T09:07:56.296Z,101243.39
2019-02-05T09:10:27.521Z,101238.94
2019-02-05T09:12:56.467Z,101237.99
2019-02-05T09:15:29.585Z,101240.70
2019-02-05T09:17:55.666Z,101240.70
2019-02-05T09:20:24.386Z,101236.23
2019-02-05T09:22:53.160Z,101242.45
2019-02-05T09:25:22.149Z,101244.34
2019-02-05T09:27:50.843Z,101247.34
2019-02-05T09:30:21.493Z,101250.17
2019-02-05T09:32:51.802Z,101255.79
2019-02-05T09:35:20.563Z,101255.38
2019-02-05T09:37:49.674Z,101259.52
2019-02-05T09:40:23.424Z,101266.80
2019-02-05T09:42:52.252Z,101263.16
2019-02-05T09:45:21.173Z,101265.00
2019-02-05T09:47:50.748Z,101261.41
2019-02-05T09:50:19.507Z,101260.46
2019-02-05T09:52:48.225Z,101264.27
2019-02-05T09:55:16.971Z,101269.67
2019-02-05T09:57:45.697Z,101269.09
2019-02-05T10:00:17.410Z,101270.40
2019-02-05T10:02:46.109Z,101269.50
2019-02-05T10:05:16.401Z,101277.47
2019-02-05T10:07:45.174Z,101278.83
2019-02-05T10:10:15.151Z,101280.71
2019-02-05T10:12:46.908Z,101278.01
2019-02-05T10:15:19.424Z,101281.66
2019-02-05T10:17:48.145Z,101284.36
2019-02-05T10:20:17.391Z,101293.80
2019-02-05T10:22:46.156Z,101290.16
2019-02-05T10:25:15.132Z,101288.97
2019-02-05T10:27:43.891Z,101286.27
2019-02-05T10:30:16.726Z,101292.13
2019-02-05T10:32:46.073Z,101287.22
2019-02-05T10:35:14.810Z,101291.27
2019-02-05T10:37:43.537Z,101290.13
2019-02-05T10:40:12.329Z,101293.28
2019-02-05T10:42:43.944Z,101291.52
2019-02-05T10:45:12.086Z,101291.52
2019-02-05T10:47:40.988Z,101285.34
2019-02-05T10:50:11.281Z,101284.53
2019-02-05T10:52:40.480Z,101290.79
2019-02-05T10:55:11.193Z,101284.53
2019-02-05T10:57:40.045Z,101283.68
2019-02-05T11:00:15.126Z,101276.11
2019-02-05T11:02:44.211Z,101282.94
2019-02-05T11:05:15.172Z,101282.62
2019-02-05T11:07:44.204Z,101282.21
2019-02-05T11:10:13.522Z,101283.16
2019-02-05T11:12:42.204Z,101286.88
2019-02-05T11:15:13.332Z,101286.88
2019-02-05T11:17:42.298Z,101279.27
2019-02-05T11:20:14.145Z,101278.03
2019-02-05T11:22:43.132Z,101278.98
2019-02-05T11:25:11.962Z,101277.30
2019-02-05T11:27:40.755Z,101270.68
2019-02-05T11:30:20.285Z,101273.86
2019-02-05T11:32:44.467Z,101272.52
2019-02-05T11:35:13.252Z,101269.53
2019-02-05T11:37:41.976Z,101267.78
2019-02-05T11:40:13.125Z,101272.39
2019-02-05T11:42:41.851Z,101274.68
2019-02-05T11:45:12.110Z,101270.71
2019-02-05T11:47:40.859Z,101259.92
2019-02-05T11:50:11.053Z,101256.33
2019-02-05T11:52:39.739Z,101266.17
2019-02-05T11:55:10.975Z,101277.45
2019-02-05T11:57:39.707Z,101274.80
2019-02-05T12:00:12.205Z,101280.61
2019-02-05T12:02:40.995Z,101277.09
2019-02-05T12:05:09.756Z,101278.45
2019-02-05T12:07:38.862Z,101278.03
2019-02-05T12:10:09.937Z,101271.29
2019-02-05T12:12:38.874Z,101274.96
2019-02-05T12:15:08.885Z,101268.34
2019-02-05T12:17:37.673Z,101273.73
2019-02-05T12:20:08.611Z,101274.67
2019-02-05T12:22:37.340Z,101272.13
2019-02-05T12:25:08.629Z,101270.78
2019-02-05T12:27:38.090Z,101276.18
2019-02-05T12:30:10.698Z,101278.52
2019-02-05T12:32:39.411Z,101268.81
2019-02-05T12:35:08.450Z,101272.94
2019-02-05T12:37:37.141Z,101269.34
2019-02-05T12:40:06.887Z,101267.87
2019-02-05T12:42:35.984Z,101268.33
2019-02-05T12:45:06.499Z,101258.48
2019-02-05T12:47:35.219Z,101256.19
2019-02-05T12:50:04.678Z,101261.17
2019-02-05T12:52:33.754Z,101260.80
2019-02-05T12:55:12.692Z,101265.78
2019-02-05T12:57:33.212Z,101263.74
2019-02-05T13:00:05.705Z,101259.44
2019-02-05T13:02:34.399Z,101257.69
2019-02-05T13:05:03.773Z,101263.53
2019-02-05T13:07:32.484Z,101264.13
2019-02-05T13:10:01.670Z,101267.80
2019-02-05T13:12:30.562Z,101268.33
2019-02-05T13:15:00.459Z,101264.28
2019-02-05T13:17:29.201Z,101266.09
2019-02-05T13:19:57.975Z,101264.00
2019-02-05T13:22:26.724Z,101274.45
2019-02-05T13:24:55.467Z,101274.94
2019-02-05T13:27:24.181Z,101272.73
2019-02-05T13:29:53.239Z,101273.67
2019-02-05T13:32:21.947Z,101269.62
2019-02-05T13:34:50.673Z,101274.08
2019-02-05T13:37:19.552Z,101283.11
2019-02-05T13:39:48.276Z,101276.89
2019-02-05T13:42:17.076Z,101292.66
2019-02-05T13:44:46.201Z,101292.20
2019-02-05T13:47:17.746Z,101288.23
2019-02-05T13:49:46.836Z,101293.67
2019-02-05T13:52:15.943Z,101294.69
2019-02-05T13:54:44.653Z,101301.42
2019-02-05T13:57:13.370Z,101302.84
2019-02-05T13:59:42.315Z,101302.43
2019-02-05T14:02:11.055Z,101306.41
2019-02-05T14:04:39.883Z,101295.20
2019-02-05T14:07:08.796Z,101312.39
2019-02-05T14:09:37.509Z,101313.29
2019-02-05T14:12:06.237Z,101316.44
2019-02-05T14:14:35.250Z,101322.72
2019-02-05T14:17:03.977Z,101317.38
2019-02-05T14:19:32.934Z,101318.27
2019-02-05T14:22:01.617Z,101311.53
2019-02-05T14:24:30.244Z,101310.59
2019-02-05T14:26:59.093Z,101311.45
2019-02-05T14:29:28.115Z,101316.36
2019-02-05T14:31:56.939Z,101314.63
2019-02-05T14:34:25.618Z,101311.94
2019-02-05T14:36:54.219Z,101309.62
2019-02-05T14:39:23.344Z,101311.12
2019-02-05T14:41:51.996Z,101312.88
2019-02-05T14:44:20.587Z,101312.88
2019-02-05T14:46:49.737Z,101306.17
2019-02-05T14:49:18.506Z,101313.40
2019-02-05T14:51:47.525Z,101306.66
2019-02-05T14:54:16.239Z,101316.51
2019-02-05T14:56:44.903Z,101316.96
2019-02-05T14:59:13.552Z,101325.53
2019-02-05T15:01:43.425Z,101321.00
2019-02-05T15:04:12.209Z,101325.53
2019-02-05T15:06:40.822Z,101326.95
2019-02-05T15:09:09.539Z,101319.31
2019-02-05T15:11:38.166Z,101327.41
2019-02-05T15:14:06.883Z,101325.13
2019-02-05T15:16:35.535Z,101329.16
2019-02-05T15:19:17.145Z,101328.83
2019-02-05T15:21:45.855Z,101332.05
2019-02-05T15:24:14.495Z,101326.31
2019-02-05T15:26:43.138Z,101332.30
2019-02-05T15:29:12.072Z,101326.98
2019-02-05T15:31:40.720Z,101340.87
2019-02-05T15:34:22.150Z,101334.13
2019-02-05T15:36:51.527Z,101343.19
2019-02-05T15:39:20.251Z,101334.23
2019-02-05T15:41:48.899Z,101332.89
2019-02-05T15:44:17.530Z,101333.83
2019-02-05T15:46:46.207Z,101339.70
2019-02-05T15:49:14.814Z,101340.56
2019-02-05T15:51:43.709Z,101343.27
2019-02-05T15:54:12.331Z,101337.53
2019-02-05T15:56:41.049Z,101340.30
2019-02-05T15:59:10.050Z,101339.40
2019-02-05T16:01:38.713Z,101330.91
2019-02-05T16:04:08.128Z,101338.13
2019-02-05T16:06:36.815Z,101336.36
2019-02-05T16:09:08.245Z,101338.23
2019-02-05T16:11:36.997Z,101332.43
2019-02-05T16:14:06.027Z,101334.67
2019-02-05T16:16:34.673Z,101331.22
2019-02-05T16:19:03.466Z,101323.59
2019-02-05T16:21:32.276Z,101315.58
2019-02-05T16:24:00.972Z,101323.25
2019-02-05T16:26:29.722Z,101317.03
2019-02-05T16:28:58.354Z,101241.23
2019-02-05T16:31:28.011Z,101320.28
2019-02-05T16:33:56.745Z,101323.50
2019-02-05T16:36:25.421Z,101323.50
2019-02-05T16:38:55.797Z,101323.50
2019-02-05T16:41:24.467Z,101325.95
2019-02-05T16:43:53.132Z,101329.66
2019-02-05T16:46:21.945Z,101338.39
2019-02-05T16:48:50.686Z,101336.44
2019-02-05T16:51:19.342Z,101337.08
2019-02-05T16:53:48.024Z,101341.58
2019-02-05T16:56:17.947Z,101341.58
2019-02-05T16:58:46.789Z,101332.31
2019-02-05T17:01:15.839Z,101334.90
2019-02-05T17:03:44.509Z,101335.17
2019-02-05T17:06:14.881Z,101339.73
2019-02-05T17:08:43.647Z,101339.97
2019-02-05T17:11:12.305Z,101341.44
2019-02-05T17:13:40.948Z,101341.33
2019-02-05T17:16:09.850Z,101332.84
2019-02-05T17:18:38.769Z,101337.29
2019-02-05T17:21:07.388Z,101340.32
2019-02-05T17:23:36.025Z,101342.00
2019-02-05T17:26:04.927Z,101344.95
2019-02-05T17:28:33.537Z,101347.23
2019-02-05T17:31:02.185Z,101356.92
2019-02-05T17:33:30.966Z,101359.13
2019-02-05T17:36:02.657Z,101356.95
2019-02-05T17:38:31.278Z,101351.13
2019-02-05T17:40:59.958Z,101347.53
2019-02-05T17:43:29.131Z,101351.38
2019-02-05T17:45:57.854Z,101347.38
2019-02-05T17:48:26.696Z,101350.23
2019-02-05T17:50:55.459Z,101348.86
2019-02-05T17:53:24.226Z,101354.27
2019-02-05T17:55:53.182Z,101344.67
2019-02-05T17:58:23.591Z,101348.86
2019-02-05T18:00:56.206Z,101347.69
2019-02-05T18:03:24.855Z,101346.08
2019-02-05T18:05:54.159Z,101347.42
2019-02-05T18:08:22.889Z,101345.93
2019-02-05T18:10:51.538Z,101351.97
2019-02-05T18:13:20.453Z,101352.46
2019-02-05T18:15:49.755Z,101353.88
2019-02-05T18:18:18.796Z,101352.52
2019-02-05T18:20:48.136Z,101351.23
2019-02-05T18:23:16.842Z,101354.51
2019-02-05T18:25:45.462Z,101357.78
2019-02-05T18:28:14.073Z,101355.14
2019-02-05T18:30:42.661Z,101348.14
2019-02-05T18:33:11.723Z,101349.56
2019-02-05T18:35:40.341Z,101346.91
2019-02-05T18:38:11.368Z,101346.73
2019-02-05T18:40:39.936Z,101345.71
2019-02-05T18:43:08.528Z,101351.34
2019-02-05T18:45:37.516Z,101344.05
2019-02-05T18:48:06.499Z,101349.38
2019-02-05T18:50:35.126Z,101347.56
2019-02-05T18:53:03.750Z,101347.56
2019-02-05T18:55:32.730Z,101346.02
2019-02-05T18:58:08.924Z,101340.60
2019-02-05T19:00:33.687Z,101337.73
2019-02-05T19:03:02.314Z,101338.91
2019-02-05T19:05:31.172Z,101340.66
2019-02-05T19:08:00.051Z,101338.75
2019-02-05T19:10:28.731Z,101340.41
2019-02-05T19:12:57.349Z,101332.98
2019-02-05T19:15:30.626Z,101335.53
2019-02-05T19:17:59.235Z,101336.73
2019-02-05T19:20:29.422Z,101332.08
2019-02-05T19:22:58.020Z,101337.84
2019-02-05T19:25:43.370Z,101335.98
2019-02-05T19:28:18.989Z,101339.09
2019-02-05T19:30:48.477Z,101332.22
2019-02-05T19:33:26.763Z,101332.72
2019-02-05T19:35:47.850Z,101336.19
2019-02-05T19:38:16.472Z,101327.69
2019-02-05T19:40:45.096Z,101329.11
2019-02-05T19:43:13.854Z,101325.54
2019-02-05T19:45:55.047Z,101327.69
2019-02-05T19:48:45.574Z,101331.76
2019-02-05T19:51:16.143Z,101333.58
2019-02-05T19:53:44.611Z,101333.58
2019-02-05T19:56:14.618Z,101335.03
2019-02-05T19:58:43.844Z,101329.61
2019-02-05T20:01:13.041Z,101324.19
2019-02-05T20:03:42.037Z,101328.71
2019-02-05T20:06:12.925Z,101325.14
2019-02-05T20:08:42.701Z,101328.25
2019-02-05T20:11:11.886Z,101325.64
2019-02-05T20:13:41.496Z,101329.11
2019-02-05T20:16:10.239Z,101329.20
2019-02-05T20:18:39.210Z,101332.48
2019-02-05T20:21:08.004Z,101328.91
2019-02-05T20:23:36.699Z,101336.54
2019-02-05T20:26:05.345Z,101333.77
2019-02-05T20:28:35.099Z,101339.09
2019-02-05T20:31:03.922Z,101338.14
2019-02-05T20:33:32.602Z,101337.64
2019-02-05T20:36:01.430Z,101263.26
2019-02-05T20:38:30.092Z,101345.61
2019-02-05T20:40:58.813Z,101340.09
2019-02-05T20:43:27.519Z,101341.05
2019-02-05T20:45:56.995Z,101351.99
2019-02-05T20:48:25.883Z,101352.85
2019-02-05T20:50:54.778Z,101360.03
2019-02-05T20:53:23.889Z,101365.35
2019-02-05T20:55:53.006Z,101359.93
2019-02-05T20:58:21.689Z,101362.58
2019-02-05T21:00:50.586Z,101366.16
2019-02-05T21:03:19.815Z,101360.17
2019-02-05T21:05:48.782Z,101360.66
2019-02-05T21:08:17.936Z,101359.67
2019-02-05T21:10:46.578Z,101354.25
2019-02-05T21:13:15.871Z,101356.60
2019-02-05T21:15:44.620Z,101358.72
2019-02-05T21:18:13.366Z,101360.48
2019-02-05T21:20:42.412Z,101355.05
2019-02-05T21:23:11.034Z,101356.60
2019-02-05T21:25:39.841Z,101350.78
2019-02-05T21:28:08.512Z,101350.38
2019-02-05T21:30:37.160Z,101347.67
2019-02-05T21:33:05.816Z,101341.45
2019-02-05T21:35:34.477Z,101343.20
2019-02-05T21:38:03.097Z,101339.60
2019-02-05T21:40:31.845Z,101338.74
2019-02-05T21:43:00.788Z,101342.71
2019-02-05T21:45:29.499Z,101341.75
2019-02-05T21:47:58.144Z,101345.36
2019-02-05T21:50:26.799Z,101342.71
2019-02-05T21:52:55.448Z,101350.38
2019-02-05T21:55:24.312Z,101346.78
2019-02-05T21:57:52.985Z,101349.88
2019-02-05T22:00:26.562Z,101349.98
2019-02-05T22:02:55.220Z,101348.23
2019-02-05T22:05:24.128Z,101341.85
2019-02-05T22:07:52.807Z,101339.30
2019-02-05T22:10:21.857Z,101341.25
2019-02-05T22:12:50.499Z,101341.25
2019-02-05T22:15:19.593Z,101337.73
2019-02-05T22:17:48.299Z,101330.72
2019-02-05T22:20:18.863Z,101327.25
2019-02-05T22:22:47.879Z,101333.22
2019-02-05T22:25:21.879Z,101335.94
2019-02-05T22:27:50.910Z,101331.07
2019-02-05T22:30:21.669Z,101330.77
2019-02-05T22:32:50.521Z,101332.22
2019-02-05T22:35:19.526Z,101328.31
2019-02-05T22:37:48.520Z,101326.95
2019-02-05T22:40:19.217Z,101324.73
2019-02-05T22:42:48.220Z,101320.73
2019-02-05T22:45:17.105Z,101310.59
2019-02-05T22:47:45.925Z,101334.28
2019-02-05T22:50:19.729Z,101338.91
2019-02-05T22:52:48.623Z,101339.49
2019-02-05T22:55:17.314Z,101333.27
2019-02-05T22:57:46.407Z,101332.02
2019-02-05T23:00:48.222Z,101322.23
2019-02-05T23:03:20.047Z,101315.91
2019-02-05T23:06:19.105Z,101307.88
2019-02-05T23:08:47.876Z,101303.42
2019-02-05T23:12:16.568Z,101302.98
2019-02-05T23:14:47.762Z,101317.48
2019-02-05T23:17:16.551Z,101328.02
2019-02-05T23:19:45.252Z,101324.81
2019-02-05T23:22:14.004Z,101318.13
2019-02-05T23:24:42.655Z,101315.52
2019-02-05T23:27:11.380Z,101325.16
2019-02-05T23:29:40.378Z,101324.20
2019-02-05T23:32:09.143Z,101329.22
2019-02-05T23:34:37.884Z,101325.25
2019-02-05T23:37:06.926Z,101318.57
2019-02-05T23:39:35.574Z,101317.37
2019-02-05T23:42:04.756Z,101323.73
2019-02-05T23:44:33.383Z,101324.29
2019-02-05T23:47:02.100Z,101319.83
2019-02-05T23:49:30.847Z,101315.45
2019-02-05T23:51:59.508Z,101324.94
2019-02-05T23:54:28.166Z,101318.66
2019-02-05T23:56:56.808Z,101318.66
2019-02-05T23:59:25.478Z,101317.77
